sensor_id;sensor_type;location;lat;lon;timestamp;P1;durP1;ratioP1;P2;durP2;ratioP2
71730;SDS011;65964;43.496;3.710;2022-12-29T00:01:46;22.13;;;12.35;;
71730;SDS011;65964;43.496;3.710;2022-12-29T00:04:13;21.25;;;12.98;;
71730;SDS011;65964;43.496;3.710;2022-12-29T00:06:39;22.88;;;13.50;;
71730;SDS011;65964;43.496;3.710;2022-12-29T00:09:05;28.02;;;15.35;;
71730;SDS011;65964;43.496;3.710;2022-12-29T00:11:31;27.17;;;17.30;;
71730;SDS011;65964;43.496;3.710;2022-12-29T00:13:57;25.60;;;14.27;;
71730;SDS011;65964;43.496;3.710;2022-12-29T00:16:43;21.27;;;12.97;;
71730;SDS011;65964;43.496;3.710;2022-12-29T00:19:09;27.40;;;13.32;;
71730;SDS011;65964;43.496;3.710;2022-12-29T00:21:55;22.55;;;12.13;;
71730;SDS011;65964;43.496;3.710;2022-12-29T00:24:40;21.73;;;12.82;;
71730;SDS011;65964;43.496;3.710;2022-12-29T00:27:18;20.60;;;11.88;;
71730;SDS011;65964;43.496;3.710;2022-12-29T00:30:10;20.83;;;11.57;;
71730;SDS011;65964;43.496;3.710;2022-12-29T00:32:54;22.45;;;11.77;;
71730;SDS011;65964;43.496;3.710;2022-12-29T00:35:44;19.98;;;11.60;;
71730;SDS011;65964;43.496;3.710;2022-12-29T00:38:11;20.45;;;12.13;;
71730;SDS011;65964;43.496;3.710;2022-12-29T00:40:57;21.02;;;11.50;;
71730;SDS011;65964;43.496;3.710;2022-12-29T00:43:41;22.38;;;11.82;;
71730;SDS011;65964;43.496;3.710;2022-12-29T00:46:26;19.60;;;10.70;;
71730;SDS011;65964;43.496;3.710;2022-12-29T00:48:52;19.45;;;10.98;;
71730;SDS011;65964;43.496;3.710;2022-12-29T00:51:36;23.58;;;11.57;;
71730;SDS011;65964;43.496;3.710;2022-12-29T00:54:02;21.27;;;10.93;;
71730;SDS011;65964;43.496;3.710;2022-12-29T00:56:28;22.10;;;12.80;;
71730;SDS011;65964;43.496;3.710;2022-12-29T00:58:54;22.50;;;12.18;;
71730;SDS011;65964;43.496;3.710;2022-12-29T01:01:20;21.48;;;12.02;;
71730;SDS011;65964;43.496;3.710;2022-12-29T01:03:46;20.92;;;12.40;;
71730;SDS011;65964;43.496;3.710;2022-12-29T01:06:12;19.58;;;11.75;;
71730;SDS011;65964;43.496;3.710;2022-12-29T01:08:39;27.70;;;12.68;;
71730;SDS011;65964;43.496;3.710;2022-12-29T01:11:08;21.35;;;12.20;;
71730;SDS011;65964;43.496;3.710;2022-12-29T01:13:35;22.23;;;12.80;;
71730;SDS011;65964;43.496;3.710;2022-12-29T01:16:03;20.95;;;11.77;;
71730;SDS011;65964;43.496;3.710;2022-12-29T01:18:29;18.92;;;12.32;;
71730;SDS011;65964;43.496;3.710;2022-12-29T01:21:02;20.90;;;12.73;;
71730;SDS011;65964;43.496;3.710;2022-12-29T01:23:28;24.88;;;15.05;;
71730;SDS011;65964;43.496;3.710;2022-12-29T01:25:55;17.98;;;12.25;;
71730;SDS011;65964;43.496;3.710;2022-12-29T01:28:21;21.92;;;12.27;;
71730;SDS011;65964;43.496;3.710;2022-12-29T01:30:47;18.70;;;11.27;;
71730;SDS011;65964;43.496;3.710;2022-12-29T01:33:14;23.88;;;11.82;;
71730;SDS011;65964;43.496;3.710;2022-12-29T01:35:40;19.17;;;11.63;;
71730;SDS011;65964;43.496;3.710;2022-12-29T01:38:06;20.30;;;11.27;;
71730;SDS011;65964;43.496;3.710;2022-12-29T01:40:33;17.70;;;11.20;;
71730;SDS011;65964;43.496;3.710;2022-12-29T01:42:59;20.67;;;11.80;;
71730;SDS011;65964;43.496;3.710;2022-12-29T01:45:25;19.73;;;10.50;;
71730;SDS011;65964;43.496;3.710;2022-12-29T01:47:58;20.88;;;11.38;;
71730;SDS011;65964;43.496;3.710;2022-12-29T01:50:26;22.15;;;11.63;;
71730;SDS011;65964;43.496;3.710;2022-12-29T01:53:04;19.65;;;11.45;;
71730;SDS011;65964;43.496;3.710;2022-12-29T01:55:34;21.88;;;12.07;;
71730;SDS011;65964;43.496;3.710;2022-12-29T01:58:02;24.00;;;13.63;;
71730;SDS011;65964;43.496;3.710;2022-12-29T02:00:30;22.17;;;12.00;;
71730;SDS011;65964;43.496;3.710;2022-12-29T02:02:56;25.15;;;13.13;;
71730;SDS011;65964;43.496;3.710;2022-12-29T02:05:33;20.48;;;11.77;;
71730;SDS011;65964;43.496;3.710;2022-12-29T02:08:00;23.45;;;12.27;;
71730;SDS011;65964;43.496;3.710;2022-12-29T02:10:27;22.48;;;12.07;;
71730;SDS011;65964;43.496;3.710;2022-12-29T02:12:54;22.67;;;12.35;;
71730;SDS011;65964;43.496;3.710;2022-12-29T02:15:22;21.67;;;12.27;;
71730;SDS011;65964;43.496;3.710;2022-12-29T02:28:23;19.02;;;11.45;;
71730;SDS011;65964;43.496;3.710;2022-12-29T02:40:59;20.83;;;11.88;;
71730;SDS011;65964;43.496;3.710;2022-12-29T02:48:59;22.02;;;12.25;;
71730;SDS011;65964;43.496;3.710;2022-12-29T02:51:29;23.23;;;12.83;;
71730;SDS011;65964;43.496;3.710;2022-12-29T02:53:57;21.48;;;11.70;;
71730;SDS011;65964;43.496;3.710;2022-12-29T02:56:42;19.20;;;11.00;;
71730;SDS011;65964;43.496;3.710;2022-12-29T02:59:09;19.02;;;11.10;;
71730;SDS011;65964;43.496;3.710;2022-12-29T03:04:03;22.92;;;12.13;;
71730;SDS011;65964;43.496;3.710;2022-12-29T03:06:39;30.40;;;11.88;;
71730;SDS011;65964;43.496;3.710;2022-12-29T03:11:36;22.67;;;11.90;;
71730;SDS011;65964;43.496;3.710;2022-12-29T03:14:27;21.75;;;12.27;;
71730;SDS011;65964;43.496;3.710;2022-12-29T03:20:04;22.02;;;12.88;;
71730;SDS011;65964;43.496;3.710;2022-12-29T03:22:32;21.77;;;12.98;;
71730;SDS011;65964;43.496;3.710;2022-12-29T03:25:11;24.95;;;15.00;;
71730;SDS011;65964;43.496;3.710;2022-12-29T03:27:40;23.70;;;13.23;;
71730;SDS011;65964;43.496;3.710;2022-12-29T03:30:07;20.13;;;11.93;;
71730;SDS011;65964;43.496;3.710;2022-12-29T03:32:42;20.60;;;12.00;;
71730;SDS011;65964;43.496;3.710;2022-12-29T03:35:09;21.55;;;12.60;;
71730;SDS011;65964;43.496;3.710;2022-12-29T03:37:37;19.30;;;12.38;;
71730;SDS011;65964;43.496;3.710;2022-12-29T03:40:05;22.60;;;12.27;;
71730;SDS011;65964;43.496;3.710;2022-12-29T03:42:32;25.67;;;12.80;;
71730;SDS011;65964;43.496;3.710;2022-12-29T03:44:59;23.08;;;12.00;;
71730;SDS011;65964;43.496;3.710;2022-12-29T03:47:25;22.25;;;11.90;;
71730;SDS011;65964;43.496;3.710;2022-12-29T03:49:52;21.13;;;11.98;;
71730;SDS011;65964;43.496;3.710;2022-12-29T03:52:18;24.27;;;12.00;;
71730;SDS011;65964;43.496;3.710;2022-12-29T03:54:44;22.38;;;11.25;;
71730;SDS011;65964;43.496;3.710;2022-12-29T03:57:10;19.92;;;12.20;;
71730;SDS011;65964;43.496;3.710;2022-12-29T03:59:36;19.90;;;10.80;;
71730;SDS011;65964;43.496;3.710;2022-12-29T04:02:02;20.65;;;11.52;;
71730;SDS011;65964;43.496;3.710;2022-12-29T04:04:28;19.00;;;10.63;;
71730;SDS011;65964;43.496;3.710;2022-12-29T04:06:54;25.88;;;10.85;;
71730;SDS011;65964;43.496;3.710;2022-12-29T04:09:20;21.95;;;10.13;;
71730;SDS011;65964;43.496;3.710;2022-12-29T04:11:46;22.02;;;10.52;;
71730;SDS011;65964;43.496;3.710;2022-12-29T04:14:12;20.38;;;11.10;;
71730;SDS011;65964;43.496;3.710;2022-12-29T04:16:39;25.00;;;10.65;;
71730;SDS011;65964;43.496;3.710;2022-12-29T04:19:05;19.13;;;10.60;;
71730;SDS011;65964;43.496;3.710;2022-12-29T04:21:32;18.80;;;10.70;;
71730;SDS011;65964;43.496;3.710;2022-12-29T04:23:58;19.52;;;10.27;;
71730;SDS011;65964;43.496;3.710;2022-12-29T04:26:24;18.90;;;9.88;;
71730;SDS011;65964;43.496;3.710;2022-12-29T04:28:50;24.48;;;12.95;;
71730;SDS011;65964;43.496;3.710;2022-12-29T04:31:16;18.02;;;10.98;;
71730;SDS011;65964;43.496;3.710;2022-12-29T04:33:42;20.80;;;9.98;;
71730;SDS011;65964;43.496;3.710;2022-12-29T04:36:08;20.20;;;10.57;;
71730;SDS011;65964;43.496;3.710;2022-12-29T04:38:35;20.30;;;10.80;;
71730;SDS011;65964;43.496;3.710;2022-12-29T04:41:01;24.15;;;10.63;;
71730;SDS011;65964;43.496;3.710;2022-12-29T04:43:28;18.70;;;10.65;;
71730;SDS011;65964;43.496;3.710;2022-12-29T04:45:54;21.63;;;10.70;;
71730;SDS011;65964;43.496;3.710;2022-12-29T04:48:20;23.27;;;10.73;;
71730;SDS011;65964;43.496;3.710;2022-12-29T04:50:47;18.45;;;10.68;;
71730;SDS011;65964;43.496;3.710;2022-12-29T04:53:14;20.38;;;10.85;;
71730;SDS011;65964;43.496;3.710;2022-12-29T04:55:40;18.98;;;10.73;;
71730;SDS011;65964;43.496;3.710;2022-12-29T04:58:06;19.33;;;10.77;;
71730;SDS011;65964;43.496;3.710;2022-12-29T05:00:32;17.33;;;10.38;;
71730;SDS011;65964;43.496;3.710;2022-12-29T05:02:58;26.27;;;12.63;;
71730;SDS011;65964;43.496;3.710;2022-12-29T05:05:24;24.10;;;13.20;;
71730;SDS011;65964;43.496;3.710;2022-12-29T05:07:51;19.17;;;10.93;;
71730;SDS011;65964;43.496;3.710;2022-12-29T05:10:17;30.05;;;11.65;;
71730;SDS011;65964;43.496;3.710;2022-12-29T05:12:43;21.67;;;10.73;;
71730;SDS011;65964;43.496;3.710;2022-12-29T05:15:09;16.50;;;10.90;;
71730;SDS011;65964;43.496;3.710;2022-12-29T05:17:35;17.77;;;10.27;;
71730;SDS011;65964;43.496;3.710;2022-12-29T05:20:02;20.70;;;11.07;;
71730;SDS011;65964;43.496;3.710;2022-12-29T05:22:29;22.38;;;12.25;;
71730;SDS011;65964;43.496;3.710;2022-12-29T05:24:55;21.88;;;10.55;;
71730;SDS011;65964;43.496;3.710;2022-12-29T05:27:21;19.75;;;10.90;;
71730;SDS011;65964;43.496;3.710;2022-12-29T05:29:47;23.80;;;11.27;;
71730;SDS011;65964;43.496;3.710;2022-12-29T05:32:13;18.30;;;10.55;;
71730;SDS011;65964;43.496;3.710;2022-12-29T05:34:39;20.80;;;10.20;;
71730;SDS011;65964;43.496;3.710;2022-12-29T05:37:05;18.08;;;10.10;;
71730;SDS011;65964;43.496;3.710;2022-12-29T05:39:31;22.30;;;10.52;;
71730;SDS011;65964;43.496;3.710;2022-12-29T05:41:57;18.55;;;11.20;;
71730;SDS011;65964;43.496;3.710;2022-12-29T05:44:23;19.98;;;12.80;;
71730;SDS011;65964;43.496;3.710;2022-12-29T05:46:49;25.90;;;13.75;;
71730;SDS011;65964;43.496;3.710;2022-12-29T05:49:15;22.13;;;11.73;;
71730;SDS011;65964;43.496;3.710;2022-12-29T05:51:41;19.58;;;10.70;;
71730;SDS011;65964;43.496;3.710;2022-12-29T05:54:07;19.95;;;11.07;;
71730;SDS011;65964;43.496;3.710;2022-12-29T05:56:33;19.55;;;10.23;;
71730;SDS011;65964;43.496;3.710;2022-12-29T05:59:00;19.33;;;10.45;;
71730;SDS011;65964;43.496;3.710;2022-12-29T06:01:26;20.33;;;11.25;;
71730;SDS011;65964;43.496;3.710;2022-12-29T06:03:52;16.58;;;9.30;;
71730;SDS011;65964;43.496;3.710;2022-12-29T06:06:18;23.98;;;9.90;;
71730;SDS011;65964;43.496;3.710;2022-12-29T06:08:44;17.42;;;10.02;;
71730;SDS011;65964;43.496;3.710;2022-12-29T06:11:10;17.70;;;9.63;;
71730;SDS011;65964;43.496;3.710;2022-12-29T06:13:36;18.17;;;9.45;;
71730;SDS011;65964;43.496;3.710;2022-12-29T06:16:02;23.50;;;10.68;;
71730;SDS011;65964;43.496;3.710;2022-12-29T06:18:28;19.25;;;9.63;;
71730;SDS011;65964;43.496;3.710;2022-12-29T06:20:58;19.20;;;10.02;;
71730;SDS011;65964;43.496;3.710;2022-12-29T06:23:25;20.08;;;11.23;;
71730;SDS011;65964;43.496;3.710;2022-12-29T06:25:51;27.33;;;11.68;;
71730;SDS011;65964;43.496;3.710;2022-12-29T06:28:17;23.27;;;10.98;;
71730;SDS011;65964;43.496;3.710;2022-12-29T06:30:44;23.10;;;11.65;;
71730;SDS011;65964;43.496;3.710;2022-12-29T06:33:10;19.15;;;11.30;;
71730;SDS011;65964;43.496;3.710;2022-12-29T06:35:36;18.77;;;10.40;;
71730;SDS011;65964;43.496;3.710;2022-12-29T06:38:02;22.25;;;10.85;;
71730;SDS011;65964;43.496;3.710;2022-12-29T06:40:28;21.23;;;12.77;;
71730;SDS011;65964;43.496;3.710;2022-12-29T06:42:55;32.42;;;18.50;;
71730;SDS011;65964;43.496;3.710;2022-12-29T06:45:21;29.08;;;17.27;;
71730;SDS011;65964;43.496;3.710;2022-12-29T06:47:47;31.08;;;16.67;;
71730;SDS011;65964;43.496;3.710;2022-12-29T06:50:13;22.52;;;12.27;;
71730;SDS011;65964;43.496;3.710;2022-12-29T06:52:39;18.63;;;10.90;;
71730;SDS011;65964;43.496;3.710;2022-12-29T06:55:05;25.33;;;11.45;;
71730;SDS011;65964;43.496;3.710;2022-12-29T06:57:31;24.63;;;12.00;;
71730;SDS011;65964;43.496;3.710;2022-12-29T06:59:57;29.10;;;12.23;;
71730;SDS011;65964;43.496;3.710;2022-12-29T07:02:23;21.30;;;11.23;;
71730;SDS011;65964;43.496;3.710;2022-12-29T07:04:52;19.92;;;10.50;;
71730;SDS011;65964;43.496;3.710;2022-12-29T07:07:19;22.70;;;10.82;;
71730;SDS011;65964;43.496;3.710;2022-12-29T07:09:45;23.15;;;11.60;;
71730;SDS011;65964;43.496;3.710;2022-12-29T07:12:11;23.85;;;13.07;;
71730;SDS011;65964;43.496;3.710;2022-12-29T07:14:37;27.67;;;18.10;;
71730;SDS011;65964;43.496;3.710;2022-12-29T07:17:04;31.88;;;18.58;;
71730;SDS011;65964;43.496;3.710;2022-12-29T07:19:31;26.67;;;16.38;;
71730;SDS011;65964;43.496;3.710;2022-12-29T07:21:57;25.90;;;10.65;;
71730;SDS011;65964;43.496;3.710;2022-12-29T07:24:23;25.00;;;10.43;;
71730;SDS011;65964;43.496;3.710;2022-12-29T07:26:51;19.23;;;10.20;;
71730;SDS011;65964;43.496;3.710;2022-12-29T07:29:17;19.15;;;9.70;;
71730;SDS011;65964;43.496;3.710;2022-12-29T07:31:43;22.30;;;9.63;;
71730;SDS011;65964;43.496;3.710;2022-12-29T07:34:09;20.83;;;10.15;;
71730;SDS011;65964;43.496;3.710;2022-12-29T07:36:35;19.52;;;9.82;;
71730;SDS011;65964;43.496;3.710;2022-12-29T07:39:01;22.40;;;12.82;;
71730;SDS011;65964;43.496;3.710;2022-12-29T07:41:28;25.50;;;11.43;;
71730;SDS011;65964;43.496;3.710;2022-12-29T07:43:54;25.15;;;11.65;;
71730;SDS011;65964;43.496;3.710;2022-12-29T07:46:20;19.02;;;11.30;;
71730;SDS011;65964;43.496;3.710;2022-12-29T07:48:46;25.75;;;15.82;;
71730;SDS011;65964;43.496;3.710;2022-12-29T07:51:12;30.65;;;15.65;;
71730;SDS011;65964;43.496;3.710;2022-12-29T07:53:38;30.85;;;16.42;;
71730;SDS011;65964;43.496;3.710;2022-12-29T07:56:04;25.92;;;14.63;;
71730;SDS011;65964;43.496;3.710;2022-12-29T07:58:31;22.73;;;12.25;;
71730;SDS011;65964;43.496;3.710;2022-12-29T08:00:57;22.13;;;11.48;;
71730;SDS011;65964;43.496;3.710;2022-12-29T08:03:23;23.17;;;10.90;;
71730;SDS011;65964;43.496;3.710;2022-12-29T08:05:50;20.65;;;12.50;;
71730;SDS011;65964;43.496;3.710;2022-12-29T08:08:16;23.33;;;12.02;;
71730;SDS011;65964;43.496;3.710;2022-12-29T08:10:43;24.13;;;12.63;;
71730;SDS011;65964;43.496;3.710;2022-12-29T08:13:09;26.70;;;16.05;;
71730;SDS011;65964;43.496;3.710;2022-12-29T08:15:37;44.35;;;24.77;;
71730;SDS011;65964;43.496;3.710;2022-12-29T08:18:03;30.65;;;17.50;;
71730;SDS011;65964;43.496;3.710;2022-12-29T08:20:29;31.23;;;17.42;;
71730;SDS011;65964;43.496;3.710;2022-12-29T08:22:55;23.48;;;12.23;;
71730;SDS011;65964;43.496;3.710;2022-12-29T08:25:21;16.83;;;9.82;;
71730;SDS011;65964;43.496;3.710;2022-12-29T08:27:47;26.35;;;11.95;;
71730;SDS011;65964;43.496;3.710;2022-12-29T08:30:14;28.52;;;13.50;;
71730;SDS011;65964;43.496;3.710;2022-12-29T08:32:41;27.15;;;13.60;;
71730;SDS011;65964;43.496;3.710;2022-12-29T08:35:07;22.10;;;11.27;;
71730;SDS011;65964;43.496;3.710;2022-12-29T08:37:33;22.65;;;10.55;;
71730;SDS011;65964;43.496;3.710;2022-12-29T08:40:00;21.40;;;10.65;;
71730;SDS011;65964;43.496;3.710;2022-12-29T08:42:28;30.38;;;15.85;;
71730;SDS011;65964;43.496;3.710;2022-12-29T08:44:56;31.58;;;14.20;;
71730;SDS011;65964;43.496;3.710;2022-12-29T08:47:22;22.70;;;11.63;;
71730;SDS011;65964;43.496;3.710;2022-12-29T08:49:48;22.95;;;10.88;;
71730;SDS011;65964;43.496;3.710;2022-12-29T08:52:14;22.08;;;11.13;;
71730;SDS011;65964;43.496;3.710;2022-12-29T08:54:40;26.73;;;15.57;;
71730;SDS011;65964;43.496;3.710;2022-12-29T08:57:06;27.52;;;14.65;;
71730;SDS011;65964;43.496;3.710;2022-12-29T08:59:32;29.33;;;16.42;;
71730;SDS011;65964;43.496;3.710;2022-12-29T09:01:58;22.13;;;11.98;;
71730;SDS011;65964;43.496;3.710;2022-12-29T09:04:25;30.98;;;15.38;;
71730;SDS011;65964;43.496;3.710;2022-12-29T09:06:52;25.95;;;12.63;;
71730;SDS011;65964;43.496;3.710;2022-12-29T09:09:18;31.67;;;13.25;;
71730;SDS011;65964;43.496;3.710;2022-12-29T09:11:44;24.40;;;13.30;;
71730;SDS011;65964;43.496;3.710;2022-12-29T09:14:10;22.95;;;11.10;;
71730;SDS011;65964;43.496;3.710;2022-12-29T09:16:37;20.83;;;12.43;;
71730;SDS011;65964;43.496;3.710;2022-12-29T09:19:03;25.77;;;13.57;;
71730;SDS011;65964;43.496;3.710;2022-12-29T09:21:29;28.65;;;14.10;;
71730;SDS011;65964;43.496;3.710;2022-12-29T09:23:55;21.00;;;12.27;;
71730;SDS011;65964;43.496;3.710;2022-12-29T09:26:21;24.27;;;12.00;;
71730;SDS011;65964;43.496;3.710;2022-12-29T09:28:47;24.83;;;12.40;;
71730;SDS011;65964;43.496;3.710;2022-12-29T09:31:14;24.67;;;11.27;;
71730;SDS011;65964;43.496;3.710;2022-12-29T09:33:40;26.52;;;13.77;;
71730;SDS011;65964;43.496;3.710;2022-12-29T09:36:06;38.38;;;17.95;;
71730;SDS011;65964;43.496;3.710;2022-12-29T09:38:32;43.78;;;21.77;;
71730;SDS011;65964;43.496;3.710;2022-12-29T09:41:41;40.03;;;19.75;;
71730;SDS011;65964;43.496;3.710;2022-12-29T09:46:40;28.90;;;15.05;;
71730;SDS011;65964;43.496;3.710;2022-12-29T09:49:19;29.37;;;14.33;;
71730;SDS011;65964;43.496;3.710;2022-12-29T09:51:48;26.92;;;11.30;;
71730;SDS011;65964;43.496;3.710;2022-12-29T09:54:36;16.70;;;9.05;;
71730;SDS011;65964;43.496;3.710;2022-12-29T09:57:10;24.60;;;11.27;;
71730;SDS011;65964;43.496;3.710;2022-12-29T09:59:39;18.90;;;9.55;;
71730;SDS011;65964;43.496;3.710;2022-12-29T10:04:44;19.67;;;10.00;;
71730;SDS011;65964;43.496;3.710;2022-12-29T10:07:13;21.55;;;9.68;;
71730;SDS011;65964;43.496;3.710;2022-12-29T10:17:41;26.55;;;12.40;;
71730;SDS011;65964;43.496;3.710;2022-12-29T10:22:39;19.73;;;9.20;;
71730;SDS011;65964;43.496;3.710;2022-12-29T10:25:20;18.90;;;8.73;;
71730;SDS011;65964;43.496;3.710;2022-12-29T10:27:48;20.55;;;8.75;;
71730;SDS011;65964;43.496;3.710;2022-12-29T10:30:14;16.17;;;8.48;;
71730;SDS011;65964;43.496;3.710;2022-12-29T10:32:44;20.10;;;8.75;;
71730;SDS011;65964;43.496;3.710;2022-12-29T10:35:12;17.02;;;8.10;;
71730;SDS011;65964;43.496;3.710;2022-12-29T10:37:45;32.28;;;9.85;;
71730;SDS011;65964;43.496;3.710;2022-12-29T10:42:48;17.83;;;8.95;;
71730;SDS011;65964;43.496;3.710;2022-12-29T10:45:15;27.23;;;12.93;;
71730;SDS011;65964;43.496;3.710;2022-12-29T10:47:47;26.33;;;11.82;;
71730;SDS011;65964;43.496;3.710;2022-12-29T10:50:15;27.98;;;12.57;;
71730;SDS011;65964;43.496;3.710;2022-12-29T10:52:41;37.22;;;14.60;;
71730;SDS011;65964;43.496;3.710;2022-12-29T10:55:09;34.55;;;17.25;;
71730;SDS011;65964;43.496;3.710;2022-12-29T10:57:46;31.42;;;14.48;;
71730;SDS011;65964;43.496;3.710;2022-12-29T11:07:42;46.78;;;24.15;;
71730;SDS011;65964;43.496;3.710;2022-12-29T11:10:19;30.10;;;13.85;;
71730;SDS011;65964;43.496;3.710;2022-12-29T11:12:56;22.08;;;10.73;;
71730;SDS011;65964;43.496;3.710;2022-12-29T11:15:22;18.60;;;8.93;;
71730;SDS011;65964;43.496;3.710;2022-12-29T11:17:51;20.67;;;8.95;;
71730;SDS011;65964;43.496;3.710;2022-12-29T11:20:39;18.45;;;9.00;;
71730;SDS011;65964;43.496;3.710;2022-12-29T11:26:05;27.15;;;11.57;;
71730;SDS011;65964;43.496;3.710;2022-12-29T11:28:31;26.02;;;12.10;;
71730;SDS011;65964;43.496;3.710;2022-12-29T11:31:01;29.98;;;13.32;;
71730;SDS011;65964;43.496;3.710;2022-12-29T11:33:28;24.85;;;13.63;;
71730;SDS011;65964;43.496;3.710;2022-12-29T11:36:16;26.90;;;13.68;;
71730;SDS011;65964;43.496;3.710;2022-12-29T11:38:48;23.75;;;11.32;;
71730;SDS011;65964;43.496;3.710;2022-12-29T11:41:19;25.47;;;10.73;;
71730;SDS011;65964;43.496;3.710;2022-12-29T11:43:45;26.75;;;12.10;;
71730;SDS011;65964;43.496;3.710;2022-12-29T11:46:23;30.58;;;15.70;;
71730;SDS011;65964;43.496;3.710;2022-12-29T11:48:50;30.25;;;17.02;;
71730;SDS011;65964;43.496;3.710;2022-12-29T11:51:26;21.00;;;9.82;;
71730;SDS011;65964;43.496;3.710;2022-12-29T11:53:55;20.90;;;11.20;;
71730;SDS011;65964;43.496;3.710;2022-12-29T11:56:32;26.08;;;11.30;;
71730;SDS011;65964;43.496;3.710;2022-12-29T11:58:58;20.15;;;10.40;;
71730;SDS011;65964;43.496;3.710;2022-12-29T12:01:44;19.88;;;9.43;;
71730;SDS011;65964;43.496;3.710;2022-12-29T12:04:12;18.05;;;9.23;;
71730;SDS011;65964;43.496;3.710;2022-12-29T12:06:44;21.08;;;10.27;;
71730;SDS011;65964;43.496;3.710;2022-12-29T12:09:29;19.73;;;9.10;;
71730;SDS011;65964;43.496;3.710;2022-12-29T12:11:56;17.02;;;9.18;;
71730;SDS011;65964;43.496;3.710;2022-12-29T12:14:25;22.20;;;11.32;;
71730;SDS011;65964;43.496;3.710;2022-12-29T12:16:54;21.95;;;9.85;;
71730;SDS011;65964;43.496;3.710;2022-12-29T12:19:28;24.67;;;11.50;;
71730;SDS011;65964;43.496;3.710;2022-12-29T12:32:11;24.13;;;12.65;;
71730;SDS011;65964;43.496;3.710;2022-12-29T12:34:41;24.85;;;11.30;;
71730;SDS011;65964;43.496;3.710;2022-12-29T12:49:55;25.65;;;10.35;;
71730;SDS011;65964;43.496;3.710;2022-12-29T12:52:30;18.77;;;9.40;;
71730;SDS011;65964;43.496;3.710;2022-12-29T12:55:18;19.90;;;9.35;;
71730;SDS011;65964;43.496;3.710;2022-12-29T13:00:18;18.80;;;8.98;;
71730;SDS011;65964;43.496;3.710;2022-12-29T13:18:43;22.30;;;10.32;;
71730;SDS011;65964;43.496;3.710;2022-12-29T13:34:45;21.77;;;9.65;;
71730;SDS011;65964;43.496;3.710;2022-12-29T13:37:14;24.48;;;10.30;;
71730;SDS011;65964;43.496;3.710;2022-12-29T13:39:42;23.00;;;10.63;;
71730;SDS011;65964;43.496;3.710;2022-12-29T13:42:09;17.83;;;11.23;;
71730;SDS011;65964;43.496;3.710;2022-12-29T13:44:39;25.38;;;12.18;;
71730;SDS011;65964;43.496;3.710;2022-12-29T13:47:27;23.85;;;11.48;;
71730;SDS011;65964;43.496;3.710;2022-12-29T13:49:52;26.20;;;11.77;;
71730;SDS011;65964;43.496;3.710;2022-12-29T13:52:21;20.85;;;10.95;;
71730;SDS011;65964;43.496;3.710;2022-12-29T14:00:15;26.13;;;12.13;;
71730;SDS011;65964;43.496;3.710;2022-12-29T14:02:45;21.42;;;11.82;;
71730;SDS011;65964;43.496;3.710;2022-12-29T14:07:46;24.88;;;13.07;;
71730;SDS011;65964;43.496;3.710;2022-12-29T14:15:30;23.85;;;12.73;;
71730;SDS011;65964;43.496;3.710;2022-12-29T14:18:30;20.95;;;11.30;;
71730;SDS011;65964;43.496;3.710;2022-12-29T14:23:36;24.63;;;12.23;;
71730;SDS011;65964;43.496;3.710;2022-12-29T14:28:43;24.00;;;13.52;;
71730;SDS011;65964;43.496;3.710;2022-12-29T14:44:32;22.13;;;13.25;;
71730;SDS011;65964;43.496;3.710;2022-12-29T14:47:00;25.38;;;13.93;;
71730;SDS011;65964;43.496;3.710;2022-12-29T14:49:28;33.42;;;17.23;;
71730;SDS011;65964;43.496;3.710;2022-12-29T14:52:03;28.67;;;15.18;;
71730;SDS011;65964;43.496;3.710;2022-12-29T14:56:59;25.17;;;14.02;;
71730;SDS011;65964;43.496;3.710;2022-12-29T14:59:26;26.23;;;14.30;;
71730;SDS011;65964;43.496;3.710;2022-12-29T15:01:53;36.90;;;17.73;;
71730;SDS011;65964;43.496;3.710;2022-12-29T15:04:21;32.47;;;16.30;;
71730;SDS011;65964;43.496;3.710;2022-12-29T15:06:47;29.08;;;14.02;;
71730;SDS011;65964;43.496;3.710;2022-12-29T15:11:54;27.63;;;13.10;;
71730;SDS011;65964;43.496;3.710;2022-12-29T15:14:39;22.08;;;12.68;;
71730;SDS011;65964;43.496;3.710;2022-12-29T15:17:28;26.58;;;14.38;;
71730;SDS011;65964;43.496;3.710;2022-12-29T15:19:55;27.45;;;14.32;;
71730;SDS011;65964;43.496;3.710;2022-12-29T15:22:21;30.25;;;16.75;;
71730;SDS011;65964;43.496;3.710;2022-12-29T15:24:48;29.60;;;15.35;;
71730;SDS011;65964;43.496;3.710;2022-12-29T15:27:17;42.42;;;21.08;;
71730;SDS011;65964;43.496;3.710;2022-12-29T15:29:44;51.33;;;26.23;;
71730;SDS011;65964;43.496;3.710;2022-12-29T15:32:24;36.50;;;18.83;;
71730;SDS011;65964;43.496;3.710;2022-12-29T15:34:51;21.60;;;12.68;;
71730;SDS011;65964;43.496;3.710;2022-12-29T15:39:47;26.25;;;11.55;;
71730;SDS011;65964;43.496;3.710;2022-12-29T15:44:58;22.43;;;12.57;;
71730;SDS011;65964;43.496;3.710;2022-12-29T15:47:24;21.08;;;12.45;;
71730;SDS011;65964;43.496;3.710;2022-12-29T15:49:53;24.08;;;12.63;;
71730;SDS011;65964;43.496;3.710;2022-12-29T15:52:22;24.95;;;12.90;;
71730;SDS011;65964;43.496;3.710;2022-12-29T15:54:49;22.38;;;12.57;;
71730;SDS011;65964;43.496;3.710;2022-12-29T15:57:26;23.48;;;13.57;;
71730;SDS011;65964;43.496;3.710;2022-12-29T15:59:52;28.77;;;14.65;;
71730;SDS011;65964;43.496;3.710;2022-12-29T16:02:22;29.75;;;17.25;;
71730;SDS011;65964;43.496;3.710;2022-12-29T16:04:48;34.80;;;19.50;;
71730;SDS011;65964;43.496;3.710;2022-12-29T16:07:29;37.08;;;22.02;;
71730;SDS011;65964;43.496;3.710;2022-12-29T16:09:56;39.42;;;20.38;;
71730;SDS011;65964;43.496;3.710;2022-12-29T16:12:24;39.88;;;20.42;;
71730;SDS011;65964;43.496;3.710;2022-12-29T16:14:52;33.72;;;19.67;;
71730;SDS011;65964;43.496;3.710;2022-12-29T16:17:20;38.75;;;19.50;;
71730;SDS011;65964;43.496;3.710;2022-12-29T16:19:49;38.05;;;20.38;;
71730;SDS011;65964;43.496;3.710;2022-12-29T16:22:17;42.70;;;20.17;;
71730;SDS011;65964;43.496;3.710;2022-12-29T16:24:46;34.33;;;19.35;;
71730;SDS011;65964;43.496;3.710;2022-12-29T16:29:42;34.72;;;17.25;;
71730;SDS011;65964;43.496;3.710;2022-12-29T16:32:27;31.90;;;17.10;;
71730;SDS011;65964;43.496;3.710;2022-12-29T16:37:34;35.92;;;19.08;;
71730;SDS011;65964;43.496;3.710;2022-12-29T16:42:47;46.47;;;26.60;;
71730;SDS011;65964;43.496;3.710;2022-12-29T16:50:20;60.40;;;37.33;;
71730;SDS011;65964;43.496;3.710;2022-12-29T16:52:50;63.78;;;38.28;;
71730;SDS011;65964;43.496;3.710;2022-12-29T16:55:17;60.22;;;32.97;;
71730;SDS011;65964;43.496;3.710;2022-12-29T16:57:43;55.40;;;34.85;;
71730;SDS011;65964;43.496;3.710;2022-12-29T17:00:17;58.33;;;38.15;;
71730;SDS011;65964;43.496;3.710;2022-12-29T17:02:44;64.00;;;40.05;;
71730;SDS011;65964;43.496;3.710;2022-12-29T17:05:14;62.20;;;37.85;;
71730;SDS011;65964;43.496;3.710;2022-12-29T17:07:41;56.35;;;36.13;;
71730;SDS011;65964;43.496;3.710;2022-12-29T17:10:07;50.53;;;32.78;;
71730;SDS011;65964;43.496;3.710;2022-12-29T17:12:33;42.20;;;25.63;;
71730;SDS011;65964;43.496;3.710;2022-12-29T17:15:00;31.98;;;19.30;;
71730;SDS011;65964;43.496;3.710;2022-12-29T17:20:08;42.13;;;23.65;;
71730;SDS011;65964;43.496;3.710;2022-12-29T17:22:39;53.08;;;30.60;;
71730;SDS011;65964;43.496;3.710;2022-12-29T17:25:05;44.97;;;27.75;;
71730;SDS011;65964;43.496;3.710;2022-12-29T17:27:35;45.38;;;29.00;;
71730;SDS011;65964;43.496;3.710;2022-12-29T17:30:09;34.60;;;22.38;;